sensor_id;sensor_type;location;lat;lon;timestamp;P1;durP1;ratioP1;P2;durP2;ratioP2
33367;SDS011;19724;51.114;13.906;2023-02-08T00:00:06;78.32;;;43.80;;
33367;SDS011;19724;51.114;13.906;2023-02-08T00:02:33;73.07;;;42.85;;
33367;SDS011;19724;51.114;13.906;2023-02-08T00:04:58;80.05;;;44.50;;
33367;SDS011;19724;51.114;13.906;2023-02-08T00:07:24;73.47;;;41.50;;
33367;SDS011;19724;51.114;13.906;2023-02-08T00:09:49;72.95;;;42.38;;
33367;SDS011;19724;51.114;13.906;2023-02-08T00:12:15;73.63;;;41.60;;
33367;SDS011;19724;51.114;13.906;2023-02-08T00:14:40;76.68;;;42.97;;
33367;SDS011;19724;51.114;13.906;2023-02-08T00:17:06;75.13;;;42.50;;
33367;SDS011;19724;51.114;13.906;2023-02-08T00:19:31;76.53;;;42.22;;
33367;SDS011;19724;51.114;13.906;2023-02-08T00:21:56;65.20;;;40.47;;
33367;SDS011;19724;51.114;13.906;2023-02-08T00:24:22;79.07;;;42.88;;
33367;SDS011;19724;51.114;13.906;2023-02-08T00:26:47;77.97;;;42.80;;
33367;SDS011;19724;51.114;13.906;2023-02-08T00:29:13;78.45;;;40.83;;
33367;SDS011;19724;51.114;13.906;2023-02-08T00:31:38;72.70;;;41.40;;
33367;SDS011;19724;51.114;13.906;2023-02-08T00:34:04;68.35;;;39.83;;
33367;SDS011;19724;51.114;13.906;2023-02-08T00:36:29;75.22;;;41.83;;
33367;SDS011;19724;51.114;13.906;2023-02-08T00:38:55;73.45;;;40.65;;
33367;SDS011;19724;51.114;13.906;2023-02-08T00:41:20;72.80;;;41.22;;
33367;SDS011;19724;51.114;13.906;2023-02-08T00:43:46;75.72;;;40.72;;
33367;SDS011;19724;51.114;13.906;2023-02-08T00:46:11;79.95;;;41.78;;
33367;SDS011;19724;51.114;13.906;2023-02-08T00:48:37;67.68;;;40.53;;
33367;SDS011;19724;51.114;13.906;2023-02-08T00:51:07;73.57;;;41.33;;
33367;SDS011;19724;51.114;13.906;2023-02-08T00:53:39;70.55;;;40.05;;
33367;SDS011;19724;51.114;13.906;2023-02-08T00:56:07;70.25;;;39.70;;
33367;SDS011;19724;51.114;13.906;2023-02-08T00:58:33;72.82;;;41.25;;
33367;SDS011;19724;51.114;13.906;2023-02-08T01:00:59;73.15;;;38.28;;
33367;SDS011;19724;51.114;13.906;2023-02-08T01:03:25;71.65;;;40.08;;
33367;SDS011;19724;51.114;13.906;2023-02-08T01:05:51;71.88;;;37.90;;
33367;SDS011;19724;51.114;13.906;2023-02-08T01:08:17;70.13;;;38.95;;
33367;SDS011;19724;51.114;13.906;2023-02-08T01:10:44;73.43;;;39.00;;
33367;SDS011;19724;51.114;13.906;2023-02-08T01:13:10;69.38;;;38.47;;
33367;SDS011;19724;51.114;13.906;2023-02-08T01:15:35;69.30;;;38.95;;
33367;SDS011;19724;51.114;13.906;2023-02-08T01:18:01;69.32;;;37.50;;
33367;SDS011;19724;51.114;13.906;2023-02-08T01:20:27;71.07;;;39.10;;
33367;SDS011;19724;51.114;13.906;2023-02-08T01:22:54;75.70;;;41.20;;
33367;SDS011;19724;51.114;13.906;2023-02-08T01:25:20;74.90;;;39.75;;
33367;SDS011;19724;51.114;13.906;2023-02-08T01:27:45;72.00;;;38.80;;
33367;SDS011;19724;51.114;13.906;2023-02-08T01:30:11;70.25;;;39.03;;
33367;SDS011;19724;51.114;13.906;2023-02-08T01:32:37;71.90;;;38.03;;
33367;SDS011;19724;51.114;13.906;2023-02-08T01:35:02;76.70;;;39.70;;
33367;SDS011;19724;51.114;13.906;2023-02-08T01:37:28;71.78;;;38.97;;
33367;SDS011;19724;51.114;13.906;2023-02-08T01:39:53;69.65;;;38.38;;
33367;SDS011;19724;51.114;13.906;2023-02-08T01:42:19;67.25;;;37.70;;
33367;SDS011;19724;51.114;13.906;2023-02-08T01:48:07;68.65;;;37.95;;
33367;SDS011;19724;51.114;13.906;2023-02-08T01:50:51;72.63;;;39.17;;
33367;SDS011;19724;51.114;13.906;2023-02-08T01:53:22;66.55;;;36.10;;
33367;SDS011;19724;51.114;13.906;2023-02-08T01:55:51;71.10;;;38.70;;
33367;SDS011;19724;51.114;13.906;2023-02-08T01:58:21;73.07;;;40.10;;
33367;SDS011;19724;51.114;13.906;2023-02-08T02:00:49;73.35;;;39.08;;
33367;SDS011;19724;51.114;13.906;2023-02-08T02:03:14;71.35;;;37.35;;
33367;SDS011;19724;51.114;13.906;2023-02-08T02:05:41;69.18;;;38.13;;
33367;SDS011;19724;51.114;13.906;2023-02-08T02:08:12;76.55;;;39.15;;
33367;SDS011;19724;51.114;13.906;2023-02-08T02:10:38;64.40;;;36.25;;
33367;SDS011;19724;51.114;13.906;2023-02-08T02:13:12;69.82;;;38.08;;
33367;SDS011;19724;51.114;13.906;2023-02-08T02:15:42;72.13;;;39.10;;
33367;SDS011;19724;51.114;13.906;2023-02-08T02:18:08;69.07;;;38.70;;
33367;SDS011;19724;51.114;13.906;2023-02-08T02:20:38;65.78;;;37.58;;
33367;SDS011;19724;51.114;13.906;2023-02-08T02:26:30;70.97;;;38.55;;
33367;SDS011;19724;51.114;13.906;2023-02-08T02:40:12;75.60;;;40.38;;
33367;SDS011;19724;51.114;13.906;2023-02-08T02:42:53;73.53;;;39.53;;
33367;SDS011;19724;51.114;13.906;2023-02-08T02:45:55;67.07;;;38.28;;
33367;SDS011;19724;51.114;13.906;2023-02-08T02:51:00;74.32;;;39.92;;
33367;SDS011;19724;51.114;13.906;2023-02-08T02:56:26;64.45;;;34.63;;
33367;SDS011;19724;51.114;13.906;2023-02-08T02:59:04;64.57;;;36.58;;
33367;SDS011;19724;51.114;13.906;2023-02-08T03:01:31;66.60;;;36.20;;
33367;SDS011;19724;51.114;13.906;2023-02-08T03:03:57;68.32;;;36.67;;
33367;SDS011;19724;51.114;13.906;2023-02-08T03:06:35;71.22;;;36.90;;
33367;SDS011;19724;51.114;13.906;2023-02-08T03:15:29;66.30;;;34.50;;
33367;SDS011;19724;51.114;13.906;2023-02-08T03:21:02;59.58;;;32.38;;
33367;SDS011;19724;51.114;13.906;2023-02-08T03:23:45;68.95;;;35.30;;
33367;SDS011;19724;51.114;13.906;2023-02-08T03:26:19;68.50;;;35.10;;
33367;SDS011;19724;51.114;13.906;2023-02-08T03:29:31;56.50;;;32.63;;
33367;SDS011;19724;51.114;13.906;2023-02-08T03:32:08;66.93;;;33.72;;
33367;SDS011;19724;51.114;13.906;2023-02-08T03:34:42;64.53;;;33.58;;
33367;SDS011;19724;51.114;13.906;2023-02-08T03:37:22;55.17;;;29.77;;
33367;SDS011;19724;51.114;13.906;2023-02-08T03:39:56;62.95;;;32.85;;
33367;SDS011;19724;51.114;13.906;2023-02-08T03:42:26;59.20;;;32.90;;
33367;SDS011;19724;51.114;13.906;2023-02-08T03:44:59;68.00;;;34.72;;
33367;SDS011;19724;51.114;13.906;2023-02-08T03:47:31;65.15;;;32.28;;
33367;SDS011;19724;51.114;13.906;2023-02-08T03:50:03;63.65;;;33.38;;
33367;SDS011;19724;51.114;13.906;2023-02-08T03:52:32;55.70;;;32.00;;
33367;SDS011;19724;51.114;13.906;2023-02-08T03:55:01;57.85;;;32.33;;
33367;SDS011;19724;51.114;13.906;2023-02-08T03:57:34;59.85;;;32.15;;
33367;SDS011;19724;51.114;13.906;2023-02-08T04:00:05;65.05;;;32.88;;
33367;SDS011;19724;51.114;13.906;2023-02-08T04:02:36;62.35;;;34.47;;
33367;SDS011;19724;51.114;13.906;2023-02-08T04:05:05;61.30;;;32.17;;
33367;SDS011;19724;51.114;13.906;2023-02-08T04:07:31;65.00;;;32.80;;
33367;SDS011;19724;51.114;13.906;2023-02-08T04:09:57;60.60;;;33.78;;
33367;SDS011;19724;51.114;13.906;2023-02-08T04:12:22;65.60;;;34.88;;
33367;SDS011;19724;51.114;13.906;2023-02-08T04:14:48;68.88;;;34.63;;
33367;SDS011;19724;51.114;13.906;2023-02-08T04:17:13;68.85;;;35.85;;
33367;SDS011;19724;51.114;13.906;2023-02-08T04:19:39;67.13;;;33.17;;
33367;SDS011;19724;51.114;13.906;2023-02-08T04:22:04;67.32;;;33.83;;
33367;SDS011;19724;51.114;13.906;2023-02-08T04:24:30;62.20;;;33.33;;
33367;SDS011;19724;51.114;13.906;2023-02-08T04:26:55;69.72;;;35.92;;
33367;SDS011;19724;51.114;13.906;2023-02-08T04:29:21;69.63;;;35.30;;
33367;SDS011;19724;51.114;13.906;2023-02-08T04:31:46;62.00;;;33.03;;
33367;SDS011;19724;51.114;13.906;2023-02-08T04:34:12;71.88;;;35.05;;
33367;SDS011;19724;51.114;13.906;2023-02-08T04:36:38;73.43;;;35.53;;
33367;SDS011;19724;51.114;13.906;2023-02-08T04:39:03;65.25;;;34.47;;
33367;SDS011;19724;51.114;13.906;2023-02-08T04:41:29;70.22;;;35.67;;
33367;SDS011;19724;51.114;13.906;2023-02-08T04:43:54;65.90;;;32.90;;
33367;SDS011;19724;51.114;13.906;2023-02-08T04:46:20;62.85;;;34.22;;
33367;SDS011;19724;51.114;13.906;2023-02-08T04:48:46;72.80;;;35.15;;
33367;SDS011;19724;51.114;13.906;2023-02-08T04:51:11;71.90;;;35.10;;
33367;SDS011;19724;51.114;13.906;2023-02-08T04:53:37;67.40;;;35.63;;
33367;SDS011;19724;51.114;13.906;2023-02-08T04:56:02;70.80;;;35.17;;
33367;SDS011;19724;51.114;13.906;2023-02-08T04:58:28;70.30;;;34.50;;
33367;SDS011;19724;51.114;13.906;2023-02-08T05:00:54;71.13;;;37.35;;
33367;SDS011;19724;51.114;13.906;2023-02-08T05:03:19;69.80;;;36.78;;
33367;SDS011;19724;51.114;13.906;2023-02-08T05:05:45;77.20;;;39.95;;
33367;SDS011;19724;51.114;13.906;2023-02-08T05:08:10;85.00;;;42.30;;
33367;SDS011;19724;51.114;13.906;2023-02-08T05:10:36;85.78;;;41.03;;
33367;SDS011;19724;51.114;13.906;2023-02-08T05:13:01;91.20;;;43.38;;
33367;SDS011;19724;51.114;13.906;2023-02-08T05:15:27;93.30;;;44.95;;
33367;SDS011;19724;51.114;13.906;2023-02-08T05:17:52;83.88;;;43.97;;
33367;SDS011;19724;51.114;13.906;2023-02-08T05:20:18;85.07;;;42.70;;
33367;SDS011;19724;51.114;13.906;2023-02-08T05:22:43;80.90;;;41.28;;
33367;SDS011;19724;51.114;13.906;2023-02-08T05:25:09;87.20;;;41.85;;
33367;SDS011;19724;51.114;13.906;2023-02-08T05:27:34;82.22;;;41.45;;
33367;SDS011;19724;51.114;13.906;2023-02-08T05:30:00;79.00;;;40.88;;
33367;SDS011;19724;51.114;13.906;2023-02-08T05:32:26;79.57;;;41.28;;
33367;SDS011;19724;51.114;13.906;2023-02-08T05:34:52;80.82;;;40.13;;
33367;SDS011;19724;51.114;13.906;2023-02-08T05:37:17;77.45;;;41.15;;
33367;SDS011;19724;51.114;13.906;2023-02-08T05:39:43;79.15;;;40.60;;
33367;SDS011;19724;51.114;13.906;2023-02-08T05:42:08;90.05;;;41.70;;
33367;SDS011;19724;51.114;13.906;2023-02-08T05:44:34;84.57;;;40.80;;
33367;SDS011;19724;51.114;13.906;2023-02-08T05:46:59;81.20;;;41.15;;
33367;SDS011;19724;51.114;13.906;2023-02-08T05:49:25;78.22;;;38.97;;
33367;SDS011;19724;51.114;13.906;2023-02-08T05:51:51;78.80;;;39.40;;
33367;SDS011;19724;51.114;13.906;2023-02-08T05:54:16;80.15;;;41.13;;
33367;SDS011;19724;51.114;13.906;2023-02-08T05:56:42;79.13;;;40.22;;
33367;SDS011;19724;51.114;13.906;2023-02-08T05:59:08;80.95;;;42.88;;
33367;SDS011;19724;51.114;13.906;2023-02-08T06:01:34;74.30;;;38.75;;
33367;SDS011;19724;51.114;13.906;2023-02-08T06:04:00;74.80;;;39.15;;
33367;SDS011;19724;51.114;13.906;2023-02-08T06:06:26;81.30;;;40.78;;
33367;SDS011;19724;51.114;13.906;2023-02-08T06:08:52;86.07;;;41.47;;
33367;SDS011;19724;51.114;13.906;2023-02-08T06:11:18;78.13;;;41.65;;
33367;SDS011;19724;51.114;13.906;2023-02-08T06:13:44;71.38;;;37.47;;
33367;SDS011;19724;51.114;13.906;2023-02-08T06:16:10;84.10;;;42.50;;
33367;SDS011;19724;51.114;13.906;2023-02-08T06:18:36;75.65;;;39.97;;
33367;SDS011;19724;51.114;13.906;2023-02-08T06:21:01;79.78;;;39.95;;
33367;SDS011;19724;51.114;13.906;2023-02-08T06:23:27;80.70;;;39.90;;
33367;SDS011;19724;51.114;13.906;2023-02-08T06:25:53;82.40;;;42.10;;
33367;SDS011;19724;51.114;13.906;2023-02-08T06:28:18;82.28;;;41.90;;
33367;SDS011;19724;51.114;13.906;2023-02-08T06:30:44;81.55;;;40.47;;
33367;SDS011;19724;51.114;13.906;2023-02-08T06:33:09;80.80;;;40.38;;
33367;SDS011;19724;51.114;13.906;2023-02-08T06:35:35;89.50;;;41.00;;
33367;SDS011;19724;51.114;13.906;2023-02-08T06:38:00;83.68;;;44.40;;
33367;SDS011;19724;51.114;13.906;2023-02-08T06:40:26;75.45;;;38.72;;
33367;SDS011;19724;51.114;13.906;2023-02-08T06:42:51;87.85;;;43.38;;
33367;SDS011;19724;51.114;13.906;2023-02-08T06:45:17;79.97;;;41.13;;
33367;SDS011;19724;51.114;13.906;2023-02-08T06:47:42;78.70;;;41.08;;
33367;SDS011;19724;51.114;13.906;2023-02-08T06:50:09;90.47;;;46.00;;
33367;SDS011;19724;51.114;13.906;2023-02-08T06:52:35;85.68;;;43.60;;
33367;SDS011;19724;51.114;13.906;2023-02-08T06:55:00;86.30;;;42.17;;
33367;SDS011;19724;51.114;13.906;2023-02-08T06:57:26;87.10;;;42.70;;
33367;SDS011;19724;51.114;13.906;2023-02-08T06:59:51;83.95;;;40.92;;
33367;SDS011;19724;51.114;13.906;2023-02-08T07:02:18;88.38;;;43.38;;
33367;SDS011;19724;51.114;13.906;2023-02-08T07:04:44;75.70;;;39.85;;
33367;SDS011;19724;51.114;13.906;2023-02-08T07:07:10;78.93;;;41.63;;
33367;SDS011;19724;51.114;13.906;2023-02-08T07:09:37;86.35;;;42.95;;
33367;SDS011;19724;51.114;13.906;2023-02-08T07:12:03;75.03;;;39.40;;
33367;SDS011;19724;51.114;13.906;2023-02-08T07:14:33;78.25;;;41.63;;
33367;SDS011;19724;51.114;13.906;2023-02-08T07:17:02;76.50;;;38.97;;
33367;SDS011;19724;51.114;13.906;2023-02-08T07:19:32;77.28;;;40.88;;
33367;SDS011;19724;51.114;13.906;2023-02-08T07:22:00;74.85;;;41.17;;
33367;SDS011;19724;51.114;13.906;2023-02-08T07:24:32;82.43;;;41.53;;
33367;SDS011;19724;51.114;13.906;2023-02-08T07:26:59;78.70;;;41.20;;
33367;SDS011;19724;51.114;13.906;2023-02-08T07:29:25;75.95;;;39.80;;
33367;SDS011;19724;51.114;13.906;2023-02-08T07:31:53;74.63;;;39.90;;
33367;SDS011;19724;51.114;13.906;2023-02-08T07:34:18;72.65;;;38.47;;
33367;SDS011;19724;51.114;13.906;2023-02-08T07:36:46;80.85;;;41.72;;
33367;SDS011;19724;51.114;13.906;2023-02-08T07:39:12;74.30;;;40.67;;
33367;SDS011;19724;51.114;13.906;2023-02-08T07:41:38;81.50;;;41.22;;
33367;SDS011;19724;51.114;13.906;2023-02-08T07:44:03;73.68;;;38.90;;
33367;SDS011;19724;51.114;13.906;2023-02-08T07:46:29;79.82;;;42.28;;
33367;SDS011;19724;51.114;13.906;2023-02-08T07:48:54;85.45;;;43.30;;
33367;SDS011;19724;51.114;13.906;2023-02-08T07:51:20;76.03;;;40.17;;
33367;SDS011;19724;51.114;13.906;2023-02-08T07:53:45;79.13;;;41.00;;
33367;SDS011;19724;51.114;13.906;2023-02-08T07:56:11;86.47;;;43.63;;
33367;SDS011;19724;51.114;13.906;2023-02-08T07:58:36;79.65;;;42.88;;
33367;SDS011;19724;51.114;13.906;2023-02-08T08:01:02;80.03;;;42.35;;
33367;SDS011;19724;51.114;13.906;2023-02-08T08:03:31;92.82;;;47.92;;
33367;SDS011;19724;51.114;13.906;2023-02-08T08:05:56;89.22;;;46.50;;
33367;SDS011;19724;51.114;13.906;2023-02-08T08:08:22;89.47;;;46.17;;
33367;SDS011;19724;51.114;13.906;2023-02-08T08:10:48;74.88;;;41.80;;
33367;SDS011;19724;51.114;13.906;2023-02-08T08:13:13;77.28;;;38.85;;
33367;SDS011;19724;51.114;13.906;2023-02-08T08:15:39;76.97;;;41.40;;
33367;SDS011;19724;51.114;13.906;2023-02-08T08:18:04;77.47;;;42.00;;
33367;SDS011;19724;51.114;13.906;2023-02-08T08:20:30;63.92;;;37.58;;
33367;SDS011;19724;51.114;13.906;2023-02-08T08:22:56;69.22;;;34.38;;
33367;SDS011;19724;51.114;13.906;2023-02-08T08:25:21;67.07;;;34.83;;
33367;SDS011;19724;51.114;13.906;2023-02-08T08:27:46;58.15;;;34.28;;
33367;SDS011;19724;51.114;13.906;2023-02-08T08:30:13;55.05;;;33.17;;
33367;SDS011;19724;51.114;13.906;2023-02-08T08:32:40;58.47;;;32.72;;
33367;SDS011;19724;51.114;13.906;2023-02-08T08:35:06;61.05;;;31.95;;
33367;SDS011;19724;51.114;13.906;2023-02-08T08:37:32;51.20;;;29.90;;
33367;SDS011;19724;51.114;13.906;2023-02-08T08:39:58;57.22;;;32.10;;
33367;SDS011;19724;51.114;13.906;2023-02-08T08:42:24;56.05;;;30.95;;
33367;SDS011;19724;51.114;13.906;2023-02-08T08:44:50;53.17;;;29.10;;
33367;SDS011;19724;51.114;13.906;2023-02-08T08:47:16;56.88;;;29.40;;
33367;SDS011;19724;51.114;13.906;2023-02-08T08:49:42;55.00;;;28.80;;
33367;SDS011;19724;51.114;13.906;2023-02-08T08:52:07;45.88;;;27.52;;
33367;SDS011;19724;51.114;13.906;2023-02-08T08:54:34;49.92;;;27.88;;
33367;SDS011;19724;51.114;13.906;2023-02-08T08:56:59;46.42;;;28.02;;
33367;SDS011;19724;51.114;13.906;2023-02-08T08:59:25;46.78;;;28.40;;
33367;SDS011;19724;51.114;13.906;2023-02-08T09:01:50;47.25;;;26.73;;
33367;SDS011;19724;51.114;13.906;2023-02-08T09:04:16;55.47;;;30.13;;
33367;SDS011;19724;51.114;13.906;2023-02-08T09:06:42;52.95;;;27.75;;
33367;SDS011;19724;51.114;13.906;2023-02-08T09:09:07;48.85;;;28.60;;
33367;SDS011;19724;51.114;13.906;2023-02-08T09:11:33;44.33;;;25.50;;
33367;SDS011;19724;51.114;13.906;2023-02-08T09:14:01;46.45;;;27.42;;
33367;SDS011;19724;51.114;13.906;2023-02-08T09:16:27;52.25;;;28.70;;
33367;SDS011;19724;51.114;13.906;2023-02-08T09:18:52;48.65;;;28.35;;
33367;SDS011;19724;51.114;13.906;2023-02-08T09:21:19;48.75;;;26.90;;
33367;SDS011;19724;51.114;13.906;2023-02-08T09:23:47;48.75;;;25.75;;
33367;SDS011;19724;51.114;13.906;2023-02-08T09:26:13;44.20;;;25.88;;
33367;SDS011;19724;51.114;13.906;2023-02-08T09:28:40;46.35;;;27.50;;
33367;SDS011;19724;51.114;13.906;2023-02-08T09:31:09;45.17;;;25.85;;
33367;SDS011;19724;51.114;13.906;2023-02-08T09:33:42;43.05;;;25.20;;
33367;SDS011;19724;51.114;13.906;2023-02-08T09:36:07;40.33;;;24.10;;
33367;SDS011;19724;51.114;13.906;2023-02-08T09:38:33;42.30;;;25.85;;
33367;SDS011;19724;51.114;13.906;2023-02-08T09:46:37;35.20;;;20.75;;
33367;SDS011;19724;51.114;13.906;2023-02-08T09:49:07;41.97;;;24.05;;
33367;SDS011;19724;51.114;13.906;2023-02-08T09:51:42;31.70;;;19.63;;
33367;SDS011;19724;51.114;13.906;2023-02-08T09:56:52;39.53;;;23.70;;
33367;SDS011;19724;51.114;13.906;2023-02-08T09:59:23;38.35;;;23.50;;
33367;SDS011;19724;51.114;13.906;2023-02-08T10:01:51;44.75;;;26.48;;
33367;SDS011;19724;51.114;13.906;2023-02-08T10:04:40;43.47;;;25.33;;
33367;SDS011;19724;51.114;13.906;2023-02-08T10:07:15;38.92;;;24.23;;
33367;SDS011;19724;51.114;13.906;2023-02-08T10:09:41;44.55;;;26.13;;
33367;SDS011;19724;51.114;13.906;2023-02-08T10:15:06;41.38;;;24.52;;
33367;SDS011;19724;51.114;13.906;2023-02-08T10:17:44;43.08;;;25.50;;
33367;SDS011;19724;51.114;13.906;2023-02-08T10:23:21;42.08;;;24.63;;
33367;SDS011;19724;51.114;13.906;2023-02-08T10:28:52;41.90;;;25.42;;
33367;SDS011;19724;51.114;13.906;2023-02-08T10:31:43;41.92;;;25.38;;
33367;SDS011;19724;51.114;13.906;2023-02-08T10:34:35;40.72;;;26.33;;
33367;SDS011;19724;51.114;13.906;2023-02-08T10:37:10;39.05;;;24.08;;
33367;SDS011;19724;51.114;13.906;2023-02-08T10:39:38;37.95;;;24.77;;
33367;SDS011;19724;51.114;13.906;2023-02-08T10:42:07;40.78;;;25.30;;
33367;SDS011;19724;51.114;13.906;2023-02-08T10:44:46;40.10;;;25.00;;
33367;SDS011;19724;51.114;13.906;2023-02-08T10:47:45;42.22;;;25.60;;
33367;SDS011;19724;51.114;13.906;2023-02-08T10:50:33;41.92;;;25.50;;
33367;SDS011;19724;51.114;13.906;2023-02-08T10:53:02;39.38;;;25.75;;
33367;SDS011;19724;51.114;13.906;2023-02-08T10:55:29;44.40;;;25.67;;
33367;SDS011;19724;51.114;13.906;2023-02-08T10:57:57;40.17;;;24.73;;
33367;SDS011;19724;51.114;13.906;2023-02-08T11:00:25;44.60;;;25.92;;
33367;SDS011;19724;51.114;13.906;2023-02-08T11:02:54;39.50;;;26.30;;
33367;SDS011;19724;51.114;13.906;2023-02-08T11:08:06;43.80;;;25.77;;
33367;SDS011;19724;51.114;13.906;2023-02-08T11:10:34;44.28;;;24.27;;
33367;SDS011;19724;51.114;13.906;2023-02-08T11:13:06;41.92;;;22.67;;
33367;SDS011;19724;51.114;13.906;2023-02-08T11:15:44;42.53;;;23.98;;
33367;SDS011;19724;51.114;13.906;2023-02-08T11:18:29;36.47;;;22.58;;
33367;SDS011;19724;51.114;13.906;2023-02-08T11:21:04;38.05;;;23.33;;
33367;SDS011;19724;51.114;13.906;2023-02-08T11:23:38;38.42;;;24.23;;
33367;SDS011;19724;51.114;13.906;2023-02-08T11:31:28;35.15;;;22.90;;
33367;SDS011;19724;51.114;13.906;2023-02-08T11:36:36;30.42;;;22.13;;
33367;SDS011;19724;51.114;13.906;2023-02-08T11:39:15;36.10;;;22.20;;
33367;SDS011;19724;51.114;13.906;2023-02-08T11:41:46;34.72;;;21.92;;
33367;SDS011;19724;51.114;13.906;2023-02-08T11:44:16;37.33;;;22.67;;
33367;SDS011;19724;51.114;13.906;2023-02-08T11:46:47;32.78;;;21.55;;
33367;SDS011;19724;51.114;13.906;2023-02-08T11:49:22;36.95;;;22.33;;
33367;SDS011;19724;51.114;13.906;2023-02-08T11:57:21;35.97;;;20.42;;
33367;SDS011;19724;51.114;13.906;2023-02-08T11:59:49;35.47;;;20.98;;
33367;SDS011;19724;51.114;13.906;2023-02-08T12:05:03;38.28;;;22.88;;
33367;SDS011;19724;51.114;13.906;2023-02-08T12:10:39;42.05;;;21.50;;
33367;SDS011;19724;51.114;13.906;2023-02-08T12:13:15;38.55;;;23.95;;
33367;SDS011;19724;51.114;13.906;2023-02-08T12:16:09;36.45;;;20.63;;
33367;SDS011;19724;51.114;13.906;2023-02-08T12:18:49;31.98;;;20.38;;
33367;SDS011;19724;51.114;13.906;2023-02-08T12:32:13;32.97;;;20.30;;
33367;SDS011;19724;51.114;13.906;2023-02-08T12:35:23;36.63;;;20.58;;
33367;SDS011;19724;51.114;13.906;2023-02-08T12:37:59;34.38;;;20.88;;
33367;SDS011;19724;51.114;13.906;2023-02-08T12:41:06;35.53;;;20.20;;
33367;SDS011;19724;51.114;13.906;2023-02-08T12:43:49;33.13;;;20.08;;
33367;SDS011;19724;51.114;13.906;2023-02-08T12:57:45;32.58;;;19.30;;
33367;SDS011;19724;51.114;13.906;2023-02-08T13:00:15;33.03;;;19.48;;
33367;SDS011;19724;51.114;13.906;2023-02-08T13:05:30;32.35;;;20.58;;
33367;SDS011;19724;51.114;13.906;2023-02-08T13:08:03;31.80;;;19.15;;
33367;SDS011;19724;51.114;13.906;2023-02-08T13:10:40;31.02;;;20.25;;
33367;SDS011;19724;51.114;13.906;2023-02-08T13:13:11;35.00;;;20.15;;
33367;SDS011;19724;51.114;13.906;2023-02-08T13:15:40;35.70;;;19.92;;
33367;SDS011;19724;51.114;13.906;2023-02-08T13:18:10;32.80;;;19.63;;
33367;SDS011;19724;51.114;13.906;2023-02-08T13:20:58;29.50;;;19.85;;
33367;SDS011;19724;51.114;13.906;2023-02-08T13:23:32;29.88;;;19.65;;
33367;SDS011;19724;51.114;13.906;2023-02-08T13:26:14;29.38;;;19.00;;
33367;SDS011;19724;51.114;13.906;2023-02-08T13:28:49;32.67;;;18.17;;
33367;SDS011;19724;51.114;13.906;2023-02-08T13:31:18;29.23;;;18.30;;
33367;SDS011;19724;51.114;13.906;2023-02-08T13:33:56;28.95;;;19.02;;
33367;SDS011;19724;51.114;13.906;2023-02-08T13:36:36;27.67;;;17.98;;
33367;SDS011;19724;51.114;13.906;2023-02-08T13:39:28;26.80;;;16.55;;
33367;SDS011;19724;51.114;13.906;2023-02-08T13:41:58;25.85;;;16.98;;
33367;SDS011;19724;51.114;13.906;2023-02-08T13:44:28;29.90;;;17.80;;
33367;SDS011;19724;51.114;13.906;2023-02-08T13:47:05;31.98;;;19.48;;
33367;SDS011;19724;51.114;13.906;2023-02-08T13:57:51;32.42;;;18.85;;
33367;SDS011;19724;51.114;13.906;2023-02-08T14:00:20;26.43;;;15.97;;
33367;SDS011;19724;51.114;13.906;2023-02-08T14:03:00;29.95;;;18.38;;
33367;SDS011;19724;51.114;13.906;2023-02-08T14:05:42;34.90;;;19.50;;
33367;SDS011;19724;51.114;13.906;2023-02-08T14:11:41;30.73;;;18.52;;
33367;SDS011;19724;51.114;13.906;2023-02-08T14:16:44;31.77;;;17.52;;
33367;SDS011;19724;51.114;13.906;2023-02-08T14:19:31;26.90;;;16.80;;
33367;SDS011;19724;51.114;13.906;2023-02-08T14:22:02;36.40;;;20.05;;
33367;SDS011;19724;51.114;13.906;2023-02-08T14:24:31;31.80;;;17.33;;
33367;SDS011;19724;51.114;13.906;2023-02-08T14:29:59;28.48;;;16.35;;
33367;SDS011;19724;51.114;13.906;2023-02-08T14:32:30;30.08;;;18.48;;
33367;SDS011;19724;51.114;13.906;2023-02-08T14:34:59;31.50;;;17.58;;
33367;SDS011;19724;51.114;13.906;2023-02-08T14:37:31;31.05;;;18.92;;
33367;SDS011;19724;51.114;13.906;2023-02-08T14:45:28;32.25;;;18.58;;
33367;SDS011;19724;51.114;13.906;2023-02-08T14:48:04;33.47;;;17.67;;
33367;SDS011;19724;51.114;13.906;2023-02-08T14:50:50;35.50;;;19.30;;
33367;SDS011;19724;51.114;13.906;2023-02-08T14:53:30;27.65;;;17.48;;
33367;SDS011;19724;51.114;13.906;2023-02-08T14:58:35;31.95;;;18.15;;
33367;SDS011;19724;51.114;13.906;2023-02-08T15:01:19;29.45;;;18.13;;
33367;SDS011;19724;51.114;13.906;2023-02-08T15:03:49;31.67;;;17.08;;
33367;SDS011;19724;51.114;13.906;2023-02-08T15:09:22;29.30;;;17.13;;
33367;SDS011;19724;51.114;13.906;2023-02-08T15:16:58;32.35;;;17.13;;
33367;SDS011;19724;51.114;13.906;2023-02-08T15:19:31;28.83;;;17.25;;
33367;SDS011;19724;51.114;13.906;2023-02-08T15:24:48;31.08;;;15.80;;
33367;SDS011;19724;51.114;13.906;2023-02-08T15:27:25;28.50;;;16.50;;
33367;SDS011;19724;51.114;13.906;2023-02-08T15:29:53;29.30;;;17.20;;
33367;SDS011;19724;51.114;13.906;2023-02-08T15:32:22;31.65;;;15.73;;
33367;SDS011;19724;51.114;13.906;2023-02-08T15:34:54;31.55;;;16.40;;
33367;SDS011;19724;51.114;13.906;2023-02-08T15:37:22;29.10;;;17.27;;
33367;SDS011;19724;51.114;13.906;2023-02-08T15:39:49;30.25;;;17.83;;
33367;SDS011;19724;51.114;13.906;2023-02-08T15:42:19;33.90;;;19.38;;
33367;SDS011;19724;51.114;13.906;2023-02-08T15:44:47;34.20;;;20.15;;
33367;SDS011;19724;51.114;13.906;2023-02-08T15:47:17;38.78;;;18.40;;
33367;SDS011;19724;51.114;13.906;2023-02-08T15:49:49;38.28;;;18.65;;
33367;SDS011;19724;51.114;13.906;2023-02-08T15:52:18;29.67;;;14.65;;
33367;SDS011;19724;51.114;13.906;2023-02-08T15:54:45;29.13;;;16.20;;
33367;SDS011;19724;51.114;13.906;2023-02-08T15:59:42;37.72;;;17.85;;
33367;SDS011;19724;51.114;13.906;2023-02-08T16:04:46;32.40;;;16.80;;
33367;SDS011;19724;51.114;13.906;2023-02-08T16:07:22;29.35;;;16.58;;
33367;SDS011;19724;51.114;13.906;2023-02-08T16:10:01;29.15;;;14.85;;
33367;SDS011;19724;51.114;13.906;2023-02-08T16:12:28;29.30;;;15.93;;
33367;SDS011;19724;51.114;13.906;2023-02-08T16:14:54;32.85;;;18.73;;
33367;SDS011;19724;51.114;13.906;2023-02-08T16:17:40;30.17;;;17.90;;
33367;SDS011;19724;51.114;13.906;2023-02-08T16:20:23;32.67;;;17.02;;
33367;SDS011;19724;51.114;13.906;2023-02-08T16:23:01;36.33;;;16.48;;
33367;SDS011;19724;51.114;13.906;2023-02-08T16:25:47;30.35;;;17.88;;
33367;SDS011;19724;51.114;13.906;2023-02-08T16:28:21;34.17;;;18.83;;
33367;SDS011;19724;51.114;13.906;2023-02-08T16:30:56;33.63;;;17.50;;
33367;SDS011;19724;51.114;13.906;2023-02-08T16:33:23;31.70;;;16.90;;
33367;SDS011;19724;51.114;13.906;2023-02-08T16:35:50;31.85;;;18.15;;
33367;SDS011;19724;51.114;13.906;2023-02-08T16:38:17;33.95;;;18.25;;
33367;SDS011;19724;51.114;13.906;2023-02-08T16:40:49;34.80;;;18.05;;